Time;durP1;ratioP1;P1;durP2;ratioP2;P2;SDS_P1;SDS_P2;PMS_P1;PMS_P2;Temp;Humidity;BMP_temperature;BMP_pressure;BME280_temperature;BME280_humidity;BME280_pressure;Samples;Min_cycle;Max_cycle;Signal;HPM_P1;HPM_P2
2021/07/03 00:00:06;;;;;;;;;17.00;14.25;;;;;24.77;46.21;100906.31;5062687;28;46826;-81
2021/07/03 00:02:31;;;;;;;;;16.00;14.50;;;;;24.78;46.17;100910.69;5063416;28;45330;-81
2021/07/03 00:04:56;;;;;;;;;11.50;11.50;;;;;24.79;46.54;100908.84;5059702;28;45699;-81
2021/07/03 00:07:22;;;;;;;;;17.00;12.00;;;;;24.73;46.84;100918.56;5060896;28;45509;-81
2021/07/03 00:09:47;;;;;;;;;15.00;12.25;;;;;24.73;46.30;100909.63;5059326;28;47314;-81
2021/07/03 00:12:13;;;;;;;;;14.00;11.50;;;;;24.70;46.40;100912.69;5059830;28;45429;-81
2021/07/03 00:14:38;;;;;;;;;13.25;12.25;;;;;24.68;47.16;100918.28;5060199;28;45402;-82
2021/07/03 00:17:04;;;;;;;;;14.25;12.25;;;;;24.58;47.22;100910.47;5062652;28;45401;-82
2021/07/03 00:19:30;;;;;;;;;12.00;11.00;;;;;24.53;47.22;100904.00;5078452;28;46313;-82
2021/07/03 00:21:56;;;;;;;;;23.50;14.00;;;;;24.51;47.01;100914.13;5081051;28;45883;-82
2021/07/03 00:24:21;;;;;;;;;9.50;8.00;;;;;24.45;47.17;100912.19;5081280;28;45472;-81
2021/07/03 00:26:47;;;;;;;;;12.75;11.75;;;;;24.39;47.64;100905.72;5080193;28;45378;-81
2021/07/03 00:29:12;;;;;;;;;12.25;12.00;;;;;24.34;47.81;100899.19;5082284;28;45324;-81
2021/07/03 00:31:37;;;;;;;;;15.50;13.00;;;;;24.30;47.08;100896.06;5083202;28;45236;-81
2021/07/03 00:34:04;;;;;;;;;17.75;13.25;;;;;24.31;47.75;100895.00;5083472;28;45382;-80
2021/07/03 00:36:29;;;;;;;;;14.00;11.00;;;;;24.30;47.75;100906.84;5078719;28;45343;-81
2021/07/03 00:38:55;;;;;;;;;15.50;12.00;;;;;24.25;48.16;100898.47;5063122;28;45967;-81
2021/07/03 00:41:21;;;;;;;;;11.50;11.50;;;;;24.14;48.13;100901.59;5064021;28;45391;-81
2021/07/03 00:43:46;;;;;;;;;15.75;13.50;;;;;24.13;48.00;100905.31;5067387;28;45413;-81
2021/07/03 00:46:13;;;;;;;;;15.75;12.75;;;;;24.12;48.41;100896.41;5064816;28;45444;-81
2021/07/03 00:48:39;;;;;;;;;14.50;12.25;;;;;24.08;49.23;100902.38;5063084;28;45439;-81
2021/07/03 00:51:05;;;;;;;;;13.50;10.25;;;;;24.04;48.12;100904.59;5062771;28;45418;-81
2021/07/03 00:53:30;;;;;;;;;16.75;12.75;;;;;24.01;48.83;100904.97;5063156;28;45433;-81
2021/07/03 00:55:56;;;;;;;;;11.25;11.00;;;;;23.97;49.37;100903.66;5068255;28;45481;-81
2021/07/03 00:58:22;;;;;;;;;13.00;12.00;;;;;23.95;49.24;100892.22;5078386;28;47192;-81
2021/07/03 01:00:48;;;;;;;;;16.00;13.00;;;;;23.94;49.48;100895.13;5061403;28;45888;-81
2021/07/03 01:03:13;;;;;;;;;14.00;13.00;;;;;23.90;49.58;100888.41;5062959;28;45290;-81
2021/07/03 01:05:38;;;;;;;;;13.75;12.00;;;;;23.89;49.28;100892.97;5064906;28;45235;-82
2021/07/03 01:08:04;;;;;;;;;16.00;16.00;;;;;23.81;49.42;100884.97;5062990;28;46464;-81
2021/07/03 01:10:30;;;;;;;;;14.75;12.50;;;;;23.78;49.50;100885.34;5061876;28;45308;-81
2021/07/03 01:12:57;;;;;;;;;12.00;11.00;;;;;23.80;50.06;100892.22;5061432;28;45382;-81
2021/07/03 01:15:23;;;;;;;;;16.00;14.00;;;;;23.82;49.78;100892.88;5062336;28;45370;-81
2021/07/03 01:17:50;;;;;;;;;15.00;12.50;;;;;23.80;49.77;100896.78;5070120;28;47151;-81
2021/07/03 01:20:17;;;;;;;;;16.00;13.25;;;;;23.76;49.76;100885.53;5081383;28;45437;-81
2021/07/03 01:22:44;;;;;;;;;16.25;13.50;;;;;23.73;50.06;100875.13;5083361;28;45230;-81
2021/07/03 01:25:12;;;;;;;;;13.75;12.00;;;;;23.69;49.68;100871.13;5086532;28;45453;-82
2021/07/03 01:27:38;;;;;;;;;14.75;14.75;;;;;23.69;50.44;100868.41;5083124;28;47500;-82
2021/07/03 01:30:06;;;;;;;;;17.25;15.25;;;;;23.72;50.00;100869.91;5083199;28;45491;-82
2021/07/03 01:32:31;;;;;;;;;14.00;14.00;;;;;23.73;49.98;100866.19;5082640;28;45221;-81
2021/07/03 01:34:57;;;;;;;;;19.00;15.00;;;;;23.71;49.62;100869.06;5080797;28;45536;-81
2021/07/03 01:37:22;;;;;;;;;18.00;16.00;;;;;23.72;49.52;100868.06;5068629;28;46233;-82
2021/07/03 01:39:49;;;;;;;;;15.00;14.25;;;;;23.74;49.52;100870.56;5059510;28;45189;-82
2021/07/03 01:42:15;;;;;;;;;21.00;18.25;;;;;23.78;49.68;100863.75;5060987;28;45272;-82
2021/07/03 01:44:41;;;;;;;;;20.75;18.00;;;;;23.80;49.70;100859.03;5061959;28;45635;-82
2021/07/03 01:47:07;;;;;;;;;17.50;15.50;;;;;23.80;49.19;100864.41;5062798;28;45417;-82
2021/07/03 01:49:39;;;;;;;;;18.75;13.25;;;;;23.84;49.69;100863.03;5062108;28;45312;-82
2021/07/03 01:52:05;;;;;;;;;18.25;17.25;;;;;23.91;49.97;100863.13;5065430;28;45285;-82
2021/07/03 01:54:31;;;;;;;;;20.50;15.25;;;;;23.85;49.98;100857.44;5064472;28;45430;-82
2021/07/03 01:56:59;;;;;;;;;19.25;16.00;;;;;23.88;49.49;100856.22;5063449;28;46133;-82
2021/07/03 01:59:29;;;;;;;;;15.50;14.75;;;;;23.80;50.52;100854.47;5061772;28;45673;-82
2021/07/03 02:01:56;;;;;;;;;17.50;14.25;;;;;23.76;49.75;100852.34;5060636;28;45327;-82
2021/07/03 02:04:21;;;;;;;;;16.00;15.00;;;;;23.75;49.85;100850.69;5060496;28;45485;-82
2021/07/03 02:06:47;;;;;;;;;15.00;13.00;;;;;23.79;49.40;100860.88;5067974;28;45404;-82
2021/07/03 02:09:14;;;;;;;;;14.50;14.50;;;;;23.84;49.56;100850.41;5066822;28;45236;-81
2021/07/03 02:11:39;;;;;;;;;13.25;12.25;;;;;23.90;49.71;100856.88;5065504;28;45449;-82
2021/07/03 02:14:05;;;;;;;;;14.50;14.00;;;;;23.96;49.62;100852.59;5061508;28;45511;-82
2021/07/03 02:16:30;;;;;;;;;16.25;13.00;;;;;23.96;49.51;100852.59;5061263;28;46259;-82
2021/07/03 02:18:56;;;;;;;;;17.75;13.75;;;;;23.99;49.36;100853.06;5080237;28;45212;-82
2021/07/03 02:21:21;;;;;;;;;14.00;13.75;;;;;23.98;49.15;100848.69;5082666;28;45271;-81
2021/07/03 02:23:47;;;;;;;;;15.25;13.75;;;;;23.99;49.07;100854.91;5080946;28;45453;-82
2021/07/03 02:26:12;;;;;;;;;14.00;14.00;;;;;23.96;49.26;100861.53;5082157;28;46004;-82
2021/07/03 02:28:38;;;;;;;;;14.50;13.50;;;;;23.91;49.29;100860.41;5077745;28;45465;-82
2021/07/03 02:31:03;;;;;;;;;14.75;13.25;;;;;23.86;49.13;100864.50;5063482;28;45228;-82
2021/07/03 02:33:29;;;;;;;;;16.00;13.00;;;;;23.80;49.39;100862.56;5063049;28;45283;-82
2021/07/03 02:35:54;;;;;;;;;15.75;13.25;;;;;23.76;49.59;100852.34;5063220;28;45412;-82
2021/07/03 02:38:20;;;;;;;;;16.50;12.75;;;;;23.71;49.59;100858.28;5062335;28;45410;-82
2021/07/03 02:40:46;;;;;;;;;15.00;12.00;;;;;23.65;49.79;100853.66;5060507;28;45323;-82
2021/07/03 02:43:12;;;;;;;;;16.50;13.50;;;;;23.60;50.12;100858.75;5061306;28;45611;-82
2021/07/03 02:45:38;;;;;;;;;14.00;13.00;;;;;23.56;49.87;100851.22;5061453;28;46094;-81
2021/07/03 02:48:04;;;;;;;;;12.00;12.00;;;;;23.54;50.40;100851.41;5060948;28;45421;-82
2021/07/03 02:50:29;;;;;;;;;16.75;14.00;;;;;23.53;49.94;100852.44;5064359;28;45325;-81
2021/07/03 02:52:54;;;;;;;;;14.25;13.00;;;;;23.48;49.80;100844.03;5065981;28;45566;-82
2021/07/03 02:55:20;;;;;;;;;14.00;11.00;;;;;23.51;49.98;100854.47;5065700;28;46381;-81
2021/07/03 02:57:45;;;;;;;;;16.25;12.25;;;;;23.57;50.06;100859.13;5081352;28;45448;-82
2021/07/03 03:00:13;;;;;;;;;14.75;13.25;;;;;23.59;49.72;100856.22;5065875;28;45337;-81
2021/07/03 03:02:39;;;;;;;;;16.25;13.00;;;;;23.62;49.69;100854.00;5065166;28;45408;-81
2021/07/03 03:05:06;;;;;;;;;11.50;11.50;;;;;23.65;50.11;100850.13;5064044;28;47315;-82
2021/07/03 03:07:33;;;;;;;;;20.00;12.75;;;;;23.63;50.07;100853.00;5060505;28;45455;-82
2021/07/03 03:09:58;;;;;;;;;14.75;13.25;;;;;23.63;49.29;100847.59;5060902;28;45218;-82
2021/07/03 03:12:24;;;;;;;;;14.00;11.75;;;;;23.62;49.98;100839.69;5061107;28;45256;-82
2021/07/03 03:14:49;;;;;;;;;13.25;12.25;;;;;23.61;49.52;100852.34;5061777;28;46310;-81
2021/07/03 03:17:15;;;;;;;;;11.00;10.75;;;;;23.55;49.41;100839.59;5065097;28;45437;-81
2021/07/03 03:19:40;;;;;;;;;13.25;10.75;;;;;23.53;49.75;100838.94;5081078;28;45583;-82
2021/07/03 03:22:05;;;;;;;;;12.25;12.25;;;;;23.50;50.43;100840.16;5079851;28;45194;-82
2021/07/03 03:24:31;;;;;;;;;14.00;12.00;;;;;23.46;50.22;100838.00;5079554;28;46273;-82
2021/07/03 03:26:56;;;;;;;;;16.50;13.25;;;;;23.42;50.01;100840.19;5063610;28;46236;-81
2021/07/03 03:29:22;;;;;;;;;11.75;11.75;;;;;23.39;50.04;100834.38;5059909;28;45956;-81
2021/07/03 03:31:47;;;;;;;;;11.75;10.50;;;;;23.44;50.15;100837.34;5061605;28;45208;-81
2021/07/03 03:34:12;;;;;;;;;14.50;12.25;;;;;23.41;49.78;100830.44;5072116;28;45543;-81
2021/07/03 03:36:38;;;;;;;;;13.50;13.50;;;;;23.41;50.31;100835.84;5074259;28;45308;-82
2021/07/03 03:39:04;;;;;;;;;15.00;14.00;;;;;23.38;50.20;100833.53;5059586;28;45256;-82
2021/07/03 03:41:29;;;;;;;;;15.00;12.75;;;;;23.39;50.44;100832.50;5058929;28;45348;-82
2021/07/03 03:43:55;;;;;;;;;15.00;13.00;;;;;23.41;50.28;100833.13;5060315;28;45244;-82
2021/07/03 03:46:20;;;;;;;;;15.00;13.00;;;;;23.41;50.54;100832.28;5059283;28;46029;-82
2021/07/03 03:48:45;;;;;;;;;17.00;12.00;;;;;23.42;50.53;100836.66;5060029;28;45358;-82
2021/07/03 03:51:11;;;;;;;;;14.00;13.00;;;;;23.42;50.08;100842.91;5059177;28;45601;-82
2021/07/03 03:53:37;;;;;;;;;12.25;10.75;;;;;23.43;50.14;100843.75;5058765;28;47008;-82
2021/07/03 03:56:02;;;;;;;;;13.50;11.50;;;;;23.44;50.36;100848.94;5065378;28;45448;-82
2021/07/03 03:58:27;;;;;;;;;15.75;12.25;;;;;23.46;50.29;100844.22;5062761;28;45273;-81
2021/07/03 04:00:53;;;;;;;;;15.25;13.00;;;;;23.46;50.38;100846.91;5060926;28;45427;-81
2021/07/03 04:03:18;;;;;;;;;12.50;10.00;;;;;23.48;50.41;100854.81;5060446;28;46319;-81
2021/07/03 04:05:44;;;;;;;;;10.75;10.25;;;;;23.49;50.14;100851.09;5063484;28;46039;-82
2021/07/03 04:08:11;;;;;;;;;16.50;13.00;;;;;23.50;50.52;100855.47;5064611;28;45469;-81
2021/07/03 04:10:36;;;;;;;;;13.00;12.75;;;;;23.51;50.73;100851.75;5061927;28;45196;-81
2021/07/03 04:13:02;;;;;;;;;15.50;13.50;;;;;23.52;50.65;100861.53;5060533;28;45376;-82
2021/07/03 04:15:27;;;;;;;;;14.25;14.00;;;;;23.53;50.41;100857.81;5061058;28;45199;-81
2021/07/03 04:17:53;;;;;;;;;14.00;13.00;;;;;23.55;50.30;100858.47;5073388;28;45228;-82
2021/07/03 04:20:18;;;;;;;;;15.50;13.25;;;;;23.55;50.79;100857.63;5083384;28;45442;-81
2021/07/03 04:22:44;;;;;;;;;15.25;13.50;;;;;23.50;50.45;100853.63;5081369;28;45394;-82
2021/07/03 04:25:12;;;;;;;;;13.25;13.25;;;;;23.51;51.07;100859.84;5080243;28;45224;-82
2021/07/03 04:27:41;;;;;;;;;13.50;12.50;;;;;23.50;50.81;100859.00;5079190;28;45459;-82
2021/07/03 04:30:07;;;;;;;;;13.25;11.00;;;;;23.53;50.90;100860.50;5079902;28;45455;-82
2021/07/03 04:32:33;;;;;;;;;11.75;10.75;;;;;23.53;50.49;100860.50;5069149;28;46042;-82
2021/07/03 04:34:58;;;;;;;;;13.25;12.00;;;;;23.55;50.70;100852.25;5075520;28;45814;-82
2021/07/03 04:37:23;;;;;;;;;12.75;12.75;;;;;23.61;50.49;100860.41;5064967;28;45416;-80
2021/07/03 04:39:49;;;;;;;;;14.50;11.25;;;;;23.66;50.53;100858.03;5063372;28;45410;-80
2021/07/03 04:42:14;;;;;;;;;14.75;12.75;;;;;23.70;50.28;100866.56;5060591;28;48179;-82
2021/07/03 04:44:39;;;;;;;;;14.00;12.00;;;;;23.73;50.31;100861.66;5060173;28;45178;-82
2021/07/03 04:47:05;;;;;;;;;14.75;13.00;;;;;23.78;50.47;100869.16;5059631;28;45195;-82
2021/07/03 04:49:32;;;;;;;;;15.50;13.50;;;;;23.83;50.82;100869.47;5060935;28;45572;-82
2021/07/03 04:51:59;;;;;;;;;20.00;14.50;;;;;23.82;50.70;100868.63;5070219;28;45475;-82
2021/07/03 04:54:24;;;;;;;;;12.25;12.00;;;;;23.87;50.73;100876.13;5059912;28;45548;-82
2021/07/03 04:56:50;;;;;;;;;15.00;13.00;;;;;23.93;50.17;100874.56;5061516;28;45333;-82
2021/07/03 04:59:15;;;;;;;;;18.25;15.00;;;;;23.98;50.48;100874.81;5061939;28;45209;-82
2021/07/03 05:01:41;;;;;;;;;17.75;13.25;;;;;24.01;50.12;100867.22;5061926;28;46372;-82
2021/07/03 05:04:06;;;;;;;;;18.50;12.75;;;;;24.05;50.15;100865.78;5061950;28;45224;-82
2021/07/03 05:06:32;;;;;;;;;13.75;13.50;;;;;24.07;50.49;100865.59;5059811;28;45157;-82
2021/07/03 05:08:57;;;;;;;;;14.00;13.00;;;;;24.07;50.08;100863.75;5058854;28;45222;-82
2021/07/03 05:11:22;;;;;;;;;14.75;13.00;;;;;24.08;49.99;100862.72;5059631;28;46270;-82
2021/07/03 05:13:48;;;;;;;;;11.00;11.00;;;;;24.06;50.73;100864.78;5058049;28;46114;-82
2021/07/03 05:16:13;;;;;;;;;15.50;13.00;;;;;24.03;50.31;100854.38;5061402;28;45253;-82
2021/07/03 05:18:39;;;;;;;;;17.25;12.50;;;;;24.01;50.28;100856.41;5061089;28;45967;-81
2021/07/03 05:21:04;;;;;;;;;14.00;13.50;;;;;24.02;50.16;100854.56;5062365;28;46455;-82
2021/07/03 05:23:29;;;;;;;;;16.50;13.25;;;;;24.06;50.78;100851.28;5067437;28;45211;-82
2021/07/03 05:25:57;;;;;;;;;17.75;16.75;;;;;24.08;50.68;100849.25;5064347;28;45323;-82
2021/07/03 05:28:23;;;;;;;;;17.50;14.50;;;;;24.08;50.19;100843.84;5062705;28;46036;-82
2021/07/03 05:30:48;;;;;;;;;15.25;15.00;;;;;24.08;50.35;100849.25;5061815;28;46833;-82
2021/07/03 05:33:14;;;;;;;;;14.00;14.00;;;;;24.10;50.39;100847.19;5065508;28;45506;-82
2021/07/03 05:35:40;;;;;;;;;14.75;13.75;;;;;24.13;50.27;100845.97;5074610;28;45572;-82
2021/07/03 05:38:05;;;;;;;;;18.50;15.00;;;;;24.12;50.48;100845.16;5063425;28;45334;-81
2021/07/03 05:40:31;;;;;;;;;18.00;15.00;;;;;24.13;50.57;100849.50;5061548;28;47529;-82
2021/07/03 05:42:56;;;;;;;;;12.50;12.25;;;;;24.10;50.35;100849.06;5078247;28;45413;-82
2021/07/03 05:45:22;;;;;;;;;16.25;16.25;;;;;24.11;50.06;100850.72;5077635;28;45435;-82
2021/07/03 05:47:51;;;;;;;;;17.50;15.50;;;;;24.14;50.22;100853.03;5062904;28;45315;-82
2021/07/03 05:50:24;;;;;;;;;13.75;13.75;;;;;24.22;50.13;100850.25;5061810;28;47736;-82
2021/07/03 05:52:50;;;;;;;;;13.00;11.75;;;;;24.31;50.48;100851.81;5063377;28;45220;-82
2021/07/03 05:55:16;;;;;;;;;15.25;13.00;;;;;24.46;49.95;100854.47;5064717;28;45232;-82
2021/07/03 05:57:42;;;;;;;;;19.00;16.75;;;;;24.63;49.68;100860.47;5066523;28;45406;-82
2021/07/03 06:00:09;;;;;;;;;14.75;14.00;;;;;24.77;50.02;100857.69;5063426;28;46157;-82
2021/07/03 06:02:34;;;;;;;;;17.75;16.75;;;;;24.94;49.17;100855.63;5061863;28;46047;-82
2021/07/03 06:05:00;;;;;;;;;17.50;16.00;;;;;25.07;49.54;100855.72;5064186;28;45335;-82
2021/07/03 06:07:26;;;;;;;;;14.75;12.00;;;;;25.20;48.65;100853.16;5065315;28;45523;-82
2021/07/03 06:09:52;;;;;;;;;14.25;10.75;;;;;25.36;48.51;100862.81;5062016;28;48079;-82
2021/07/03 06:12:18;;;;;;;;;20.00;16.75;;;;;25.47;47.89;100861.44;5062130;28;46201;-82
2021/07/03 06:14:44;;;;;;;;;15.50;15.50;;;;;25.56;48.03;100858.38;5062913;28;45216;-82
2021/07/03 06:17:13;;;;;;;;;17.50;16.00;;;;;25.65;47.98;100861.81;5066805;28;45157;-82
2021/07/03 06:19:43;;;;;;;;;17.25;14.25;;;;;25.67;47.86;100857.88;5083435;28;45380;-82
2021/07/03 06:22:11;;;;;;;;;20.25;16.25;;;;;25.71;47.82;100864.53;5082921;28;45448;-82
2021/07/03 06:24:38;;;;;;;;;19.75;15.25;;;;;25.74;47.53;100871.44;5082741;28;45354;-82
2021/07/03 06:27:03;;;;;;;;;16.00;15.00;;;;;25.78;47.86;100872.69;5084941;28;45255;-83
2021/07/03 06:29:29;;;;;;;;;17.25;15.00;;;;;25.81;47.30;100868.75;5084073;28;47248;-82
2021/07/03 06:31:54;;;;;;;;;16.00;13.00;;;;;25.78;47.44;100861.03;5081069;28;45429;-80
2021/07/03 06:34:19;;;;;;;;;15.00;13.25;;;;;25.82;47.00;100865.00;5080622;28;45427;-80
2021/07/03 06:36:45;;;;;;;;;16.25;12.75;;;;;25.92;46.58;100860.91;5073723;28;45428;-81
2021/07/03 06:39:10;;;;;;;;;14.25;12.25;;;;;26.04;47.11;100853.03;5064093;28;46416;-81
2021/07/03 06:41:36;;;;;;;;;15.25;12.75;;;;;26.27;46.67;100866.28;5061299;28;45228;-82
2021/07/03 06:44:02;;;;;;;;;18.75;15.00;;;;;26.42;46.18;100869.66;5062523;28;45150;-82
2021/07/03 06:46:28;;;;;;;;;14.75;13.25;;;;;26.49;45.66;100878.66;5063777;28;45465;-81
2021/07/03 06:48:54;;;;;;;;;12.25;12.25;;;;;26.39;45.26;100868.22;5080524;28;45442;-81
2021/07/03 06:51:19;;;;;;;;;21.00;15.75;;;;;26.39;45.78;100884.47;5079095;28;45267;-82
2021/07/03 06:53:45;;;;;;;;;17.50;14.25;;;;;26.50;45.59;100885.72;5063348;28;45276;-81
2021/07/03 06:56:10;;;;;;;;;15.25;15.25;;;;;26.62;44.85;100870.56;5066117;28;45199;-82
2021/07/03 06:58:36;;;;;;;;;16.00;12.50;;;;;26.79;44.39;100874.53;5062266;28;46391;-82
2021/07/03 07:01:01;;;;;;;;;12.25;11.00;;;;;26.94;44.47;100877.13;5065740;28;45399;-81
2021/07/03 07:03:27;;;;;;;;;14.50;12.25;;;;;26.99;43.45;100880.03;5061970;28;45309;-82
2021/07/03 07:05:52;;;;;;;;;12.50;11.00;;;;;26.93;44.05;100880.88;5063700;28;45359;-82
2021/07/03 07:08:17;;;;;;;;;17.50;12.00;;;;;26.90;43.66;100888.53;5065612;28;45351;-82
2021/07/03 07:10:43;;;;;;;;;13.00;11.50;;;;;26.86;43.25;100885.38;5065763;28;45572;-82
2021/07/03 07:13:09;;;;;;;;;10.50;9.00;;;;;26.87;43.54;100875.38;5064206;28;45358;-81
2021/07/03 07:15:35;;;;;;;;;13.00;11.00;;;;;26.93;43.23;100880.03;5061111;28;46010;-81
2021/07/03 07:18:00;;;;;;;;;11.00;10.00;;;;;27.03;43.36;100884.00;5061306;28;45353;-82
2021/07/03 07:20:26;;;;;;;;;13.00;11.50;;;;;27.15;43.03;100895.03;5060724;28;45377;-82
2021/07/03 07:22:51;;;;;;;;;15.75;11.25;;;;;27.29;42.47;100895.88;5061093;28;45339;-81
2021/07/03 07:25:17;;;;;;;;;10.75;10.00;;;;;27.38;42.16;100895.47;5062212;28;45233;-82
2021/07/03 07:27:42;;;;;;;;;12.75;11.75;;;;;27.64;41.70;100908.19;5061112;28;47246;-81
2021/07/03 07:30:08;;;;;;;;;10.50;10.50;;;;;27.94;41.12;100905.84;5061591;28;45229;-82
2021/07/03 07:32:33;;;;;;;;;11.00;9.00;;;;;28.08;40.76;100910.16;5065322;28;45368;-81
2021/07/03 07:34:59;;;;;;;;;12.00;11.25;;;;;28.42;40.48;100910.91;5063045;28;45631;-82
2021/07/03 07:37:26;;;;;;;;;15.50;13.00;;;;;28.89;40.92;100912.34;5061896;28;45283;-82
2021/07/03 07:39:52;;;;;;;;;12.75;12.25;;;;;29.29;37.49;100911.00;5062696;28;45342;-82
2021/07/03 07:42:17;;;;;;;;;12.00;12.00;;;;;29.26;38.27;100905.16;5062830;28;45441;-82
2021/07/03 07:44:42;;;;;;;;;14.75;12.75;;;;;29.13;38.68;100910.72;5062289;28;45610;-82
2021/07/03 07:47:08;;;;;;;;;11.75;11.25;;;;;28.93;38.93;100914.41;5061025;28;46634;-80
2021/07/03 07:49:33;;;;;;;;;15.75;12.00;;;;;28.80;39.96;100919.09;5062433;28;45400;-81
2021/07/03 07:51:59;;;;;;;;;13.75;11.00;;;;;28.61;39.52;100915.41;5065341;28;45525;-81
2021/07/03 07:54:24;;;;;;;;;13.50;12.00;;;;;28.45;39.64;100924.88;5063312;28;45458;-81
2021/07/03 07:56:49;;;;;;;;;13.00;10.25;;;;;28.33;39.33;100936.63;5065231;28;45407;-81
2021/07/03 07:59:15;;;;;;;;;11.00;11.00;;;;;28.14;39.34;100928.31;5059548;28;45977;-81
2021/07/03 08:01:40;;;;;;;;;13.25;11.00;;;;;28.00;39.31;100923.97;5060454;28;45382;-82
2021/07/03 08:04:06;;;;;;;;;15.00;12.00;;;;;27.86;39.69;100920.44;5058602;28;45701;-82
2021/07/03 08:06:31;;;;;;;;;10.50;10.50;;;;;27.80;39.75;100915.06;5059190;28;48741;-82
2021/07/03 08:08:56;;;;;;;;;13.75;11.25;;;;;27.69;39.57;100930.09;5060071;28;45385;-81
2021/07/03 08:11:23;;;;;;;;;13.25;10.25;;;;;27.50;40.40;100920.06;5060381;28;45331;-81
2021/07/03 08:13:48;;;;;;;;;12.00;9.50;;;;;27.29;40.88;100909.44;5061341;28;45254;-82
2021/07/03 08:16:14;;;;;;;;;11.75;10.50;;;;;27.22;41.06;100916.75;5063171;28;48368;-82
2021/07/03 08:18:39;;;;;;;;;12.25;9.25;;;;;27.09;40.60;100917.56;5075264;28;45246;-82
2021/07/03 08:21:05;;;;;;;;;14.00;11.75;;;;;26.97;41.46;100928.19;5061198;28;45418;-81
2021/07/03 08:23:30;;;;;;;;;11.75;11.75;;;;;26.85;41.82;100928.97;5075830;28;45264;-82
2021/07/03 08:25:56;;;;;;;;;9.50;9.00;;;;;26.74;41.97;100923.13;5060722;28;47737;-81
2021/07/03 08:28:21;;;;;;;;;11.50;10.75;;;;;26.69;42.08;100919.31;5061852;28;45421;-82
2021/07/03 08:30:47;;;;;;;;;12.00;11.50;;;;;26.60;42.74;100923.25;5060573;28;46255;-81
2021/07/03 08:33:12;;;;;;;;;13.75;12.00;;;;;26.56;42.78;100922.84;5062602;28;45643;-81
2021/07/03 08:35:38;;;;;;;;;9.75;9.75;;;;;26.49;43.02;100913.88;5065398;28;45545;-81
2021/07/03 08:38:03;;;;;;;;;12.50;9.00;;;;;26.44;43.46;100910.91;5064156;28;45425;-82
2021/07/03 08:40:31;;;;;;;;;16.25;12.00;;;;;26.39;43.70;100913.41;5062409;28;45544;-81
2021/07/03 08:42:57;;;;;;;;;11.00;11.00;;;;;26.36;44.36;100921.94;5062128;28;45292;-81
2021/07/03 08:45:22;;;;;;;;;14.00;11.25;;;;;26.24;44.63;100926.22;5062984;28;47570;-80
2021/07/03 08:47:48;;;;;;;;;15.50;10.75;;;;;26.11;44.66;100935.13;5059177;28;45196;-81
2021/07/03 08:50:17;;;;;;;;;14.50;12.75;;;;;25.99;44.76;100929.44;5065863;28;45165;-81
2021/07/03 08:52:42;;;;;;;;;12.25;11.50;;;;;25.91;45.26;100935.00;5071516;27;45625;-81
2021/07/03 08:55:22;;;;;;;;;14.50;11.50;;;;;25.78;45.56;100934.91;5067249;28;45489;-81
2021/07/03 08:57:51;;;;;;;;;13.75;11.25;;;;;25.67;45.74;100941.72;5066430;28;45165;-81
2021/07/03 09:00:37;;;;;;;;;16.25;12.25;;;;;25.60;46.92;100959.75;5067267;28;45223;-81
2021/07/03 09:03:17;;;;;;;;;15.50;12.50;;;;;25.57;47.41;100951.19;5072604;28;45397;-81
2021/07/03 09:05:50;;;;;;;;;14.00;12.75;;;;;25.58;48.15;100942.03;5083096;28;46181;-81
2021/07/03 09:08:17;;;;;;;;;12.00;12.00;;;;;25.59;49.38;100944.53;5085110;28;45670;-80
2021/07/03 09:10:43;;;;;;;;;14.00;11.50;;;;;25.72;48.34;100941.13;5066828;28;45248;-81
2021/07/03 09:13:09;;;;;;;;;14.50;13.50;;;;;25.83;48.04;100942.44;5065662;28;45210;-82
2021/07/03 09:15:42;;;;;;;;;14.50;11.00;;;;;25.98;48.17;100935.88;5063659;28;45333;-81
2021/07/03 09:18:10;;;;;;;;;14.50;10.75;;;;;26.14;47.27;100937.41;5076171;28;45332;-82
2021/07/03 09:20:39;;;;;;;;;12.75;11.75;;;;;26.31;47.37;100932.56;5086826;28;45191;-82
2021/07/03 09:23:26;;;;;;;;;17.00;13.25;;;;;26.48;47.00;100936.56;5085305;28;45416;-82
2021/07/03 09:25:54;;;;;;;;;16.50;12.50;;;;;26.68;46.89;100942.03;5085049;28;47321;-81
2021/07/03 09:28:31;;;;;;;;;13.00;13.00;;;;;26.79;46.58;100936.88;5084651;28;45223;-80
2021/07/03 09:31:00;;;;;;;;;15.25;13.00;;;;;26.79;46.44;100939.56;5085254;28;45458;-81
2021/07/03 09:33:32;;;;;;;;;13.75;12.25;;;;;26.74;46.63;100947.50;5083059;28;45388;-81
2021/07/03 09:36:00;;;;;;;;;15.00;13.50;;;;;26.66;46.49;100947.69;5073941;28;45475;-81
2021/07/03 09:38:35;;;;;;;;;15.50;15.00;;;;;26.56;46.31;100955.34;5068835;28;45394;-80
2021/07/03 09:41:15;;;;;;;;;15.75;13.50;;;;;26.43;47.14;100953.41;5066290;28;45365;-82
2021/07/03 09:43:50;;;;;;;;;18.25;15.25;;;;;26.42;46.52;100961.75;5073413;28;45199;-80
2021/07/03 09:46:37;;;;;;;;;14.00;12.75;;;;;26.40;46.95;100961.94;5062971;28;45642;-81
2021/07/03 09:49:05;;;;;;;;;15.25;12.75;;;;;26.44;46.19;100967.78;5061831;28;45504;-81
2021/07/03 09:51:46;;;;;;;;;18.50;17.25;;;;;26.42;45.94;100959.88;5063676;28;45283;-81
2021/07/03 09:54:13;;;;;;;;;11.00;10.75;;;;;26.50;46.23;100966.97;5063825;28;45430;-82
2021/07/03 09:56:40;;;;;;;;;17.00;15.25;;;;;26.63;45.94;100966.22;5068743;28;47577;-81
2021/07/03 09:59:06;;;;;;;;;16.25;14.25;;;;;26.77;45.60;100968.75;5063779;28;45343;-81
2021/07/03 10:01:33;;;;;;;;;17.50;13.25;;;;;26.87;45.49;100968.34;5064570;28;45386;-82
2021/07/03 10:04:01;;;;;;;;;15.50;13.25;;;;;26.92;45.19;100970.50;5078657;28;45441;-82
2021/07/03 10:06:47;;;;;;;;;17.00;15.25;;;;;27.21;44.53;100970.16;5075687;28;46374;-82
2021/07/03 10:09:23;;;;;;;;;13.25;13.25;;;;;27.50;44.41;100967.00;5064129;28;45407;-80
2021/07/03 10:11:51;;;;;;;;;16.25;15.00;;;;;27.78;42.87;100968.69;5063003;28;45441;-81
2021/07/03 10:14:18;;;;;;;;;14.75;14.25;;;;;27.78;41.99;100965.97;5068383;28;45915;-81
2021/07/03 10:16:44;;;;;;;;;17.50;13.75;;;;;27.76;41.99;100955.38;5083013;28;46578;-81
2021/07/03 10:19:20;;;;;;;;;11.00;11.00;;;;;27.65;42.05;100955.16;5083658;28;45248;-80
2021/07/03 10:21:46;;;;;;;;;15.50;13.00;;;;;27.63;42.04;100949.09;5067960;28;45575;-80
2021/07/03 10:24:23;;;;;;;;;16.25;13.75;;;;;27.69;42.17;100945.53;5061992;28;45446;-81
2021/07/03 10:26:52;;;;;;;;;14.50;12.75;;;;;27.94;42.07;100949.28;5063403;28;46389;-82
2021/07/03 10:29:23;;;;;;;;;13.75;13.00;;;;;28.19;40.95;100947.56;5067030;28;45481;-82
2021/07/03 10:31:52;;;;;;;;;13.25;12.25;;;;;28.29;41.39;100950.66;5070362;28;45500;-82
2021/07/03 10:34:30;;;;;;;;;15.00;13.00;;;;;28.31;41.05;100950.47;5062204;28;45458;-82
2021/07/03 10:37:02;;;;;;;;;15.50;13.75;;;;;28.50;40.86;100946.00;5064538;28;47474;-82
2021/07/03 10:39:31;;;;;;;;;16.75;13.25;;;;;28.90;39.46;100947.47;5060138;28;45387;-82
2021/07/03 10:41:57;;;;;;;;;17.00;14.00;;;;;29.49;38.77;100956.28;5061687;28;45500;-82
2021/07/03 10:44:22;;;;;;;;;14.25;14.00;;;;;29.93;36.55;100953.34;5061985;28;45302;-82
2021/07/03 10:46:48;;;;;;;;;14.25;13.00;;;;;30.38;38.11;100953.06;5063639;28;45416;-81
2021/07/03 10:49:20;;;;;;;;;12.25;12.25;;;;;30.73;35.79;100954.09;5067019;28;45963;-82
2021/07/03 10:51:51;;;;;;;;;12.25;9.75;;;;;30.98;33.94;100962.13;5064910;28;45533;-81
2021/07/03 10:54:30;;;;;;;;;11.00;10.00;;;;;31.49;33.62;100961.59;5074218;28;44602;-81
2021/07/03 10:57:03;;;;;;;;;9.50;9.00;;;;;31.91;33.25;100959.59;5066640;28;47502;-81
2021/07/03 10:59:33;;;;;;;;;8.50;8.50;;;;;32.36;33.39;100949.91;5062097;28;45512;-82
2021/07/03 11:02:18;;;;;;;;;10.00;10.00;;;;;32.71;31.83;100947.91;5062266;28;45495;-83
2021/07/03 11:04:54;;;;;;;;;8.75;8.25;;;;;32.78;29.75;100945.06;5073285;28;45317;-83
2021/07/03 11:07:25;;;;;;;;;9.00;7.25;;;;;32.87;30.62;100955.31;5082311;28;45349;-81